BAW146 LTFM-LTAC
Flight info
| Callsign | BAW146 |
|---|---|
| Flight time | 0h 43m |
| Altitude | 27000 |
| Route | VICEN1D/35L VICEN T380 ASMAP L333 LATGA |
| Aircraft | B77W/H-SDE1E2E3FGHIJ2J3J4J5M1RWXY/LB1D1 |
Departure
| Time | 2026-05-06 12:50 |
|---|---|
| Airport | İstanbul Airport (LTFM) |
Arrival
| Time | 2026-05-06 13:33 |
|---|---|
| Airport | Esenboğa International Airport (LTAC) |
| Time | Latitude | Longitude | Altitude | Speed | Heading |
|---|---|---|---|---|---|
| 2026-05-06 12:29 | 41.25759 | 28.73497 | 317 ft | 0 kts | 89° |
| 2026-05-06 12:41 | 41.25758 | 28.73470 | 317 ft | 4 kts | 84° |
| 2026-05-06 12:41 | 41.25754 | 28.73435 | 317 ft | 4 kts | 74° |
| 2026-05-06 12:41 | 41.25745 | 28.73403 | 315 ft | 4 kts | 60° |
| 2026-05-06 12:42 | 41.25730 | 28.73376 | 314 ft | 4 kts | 39° |
| 2026-05-06 12:42 | 41.25711 | 28.73361 | 315 ft | 4 kts | 9° |
| 2026-05-06 12:42 | 41.25702 | 28.73359 | 315 ft | 1 kts | 359° |
| 2026-05-06 12:45 | 41.25788 | 28.73351 | 318 ft | 7 kts | 344° |
| 2026-05-06 12:46 | 41.25817 | 28.73295 | 318 ft | 9 kts | 289° |
| 2026-05-06 12:46 | 41.25855 | 28.73236 | 318 ft | 9 kts | 351° |
| 2026-05-06 12:46 | 41.25921 | 28.73237 | 318 ft | 10 kts | 0° |
| 2026-05-06 12:46 | 41.26006 | 28.73236 | 318 ft | 16 kts | 359° |
| 2026-05-06 12:47 | 41.26129 | 28.73235 | 318 ft | 13 kts | 359° |
| 2026-05-06 12:47 | 41.26206 | 28.73199 | 318 ft | 13 kts | 300° |
| 2026-05-06 12:47 | 41.26217 | 28.73078 | 318 ft | 13 kts | 270° |
| 2026-05-06 12:47 | 41.26217 | 28.73002 | 320 ft | 4 kts | 270° |
| 2026-05-06 12:48 | 41.26216 | 28.72968 | 320 ft | 4 kts | 269° |
| 2026-05-06 12:48 | 41.26216 | 28.72871 | 324 ft | 21 kts | 269° |
| 2026-05-06 12:48 | 41.26212 | 28.72662 | 326 ft | 23 kts | 269° |
| 2026-05-06 12:48 | 41.26239 | 28.72535 | 324 ft | 14 kts | 333° |
| 2026-05-06 12:49 | 41.26292 | 28.72524 | 325 ft | 1 kts | 358° |
| 2026-05-06 12:49 | 41.26451 | 28.72520 | 328 ft | 56 kts | 359° |
| 2026-05-06 12:49 | 41.27149 | 28.72508 | 323 ft | 142 kts | 359° |
| 2026-05-06 12:49 | 41.28348 | 28.72479 | 450 ft | 195 kts | 2° |
| 2026-05-06 12:50 | 41.29752 | 28.72458 | 1234 ft | 204 kts | 2° |
| 2026-05-06 12:50 | 41.31200 | 28.72484 | 2098 ft | 221 kts | 0° |
| 2026-05-06 12:50 | 41.32848 | 28.72507 | 2707 ft | 252 kts | 359° |
| 2026-05-06 12:50 | 41.34619 | 28.72535 | 3712 ft | 252 kts | 356° |
| 2026-05-06 12:51 | 41.36285 | 28.71952 | 4536 ft | 250 kts | 327° |
| 2026-05-06 12:51 | 41.37534 | 28.70327 | 4966 ft | 256 kts | 303° |
| 2026-05-06 12:51 | 41.38176 | 28.68093 | 4956 ft | 261 kts | 278° |
| 2026-05-06 12:51 | 41.38194 | 28.65685 | 4978 ft | 260 kts | 270° |
| 2026-05-06 12:52 | 41.38150 | 28.63273 | 4965 ft | 261 kts | 271° |
| 2026-05-06 12:52 | 41.38113 | 28.60863 | 4960 ft | 259 kts | 271° |
| 2026-05-06 12:52 | 41.37919 | 28.58534 | 4952 ft | 258 kts | 253° |
| 2026-05-06 12:52 | 41.36920 | 28.56468 | 4957 ft | 272 kts | 225° |
| 2026-05-06 12:53 | 41.35297 | 28.55240 | 4966 ft | 276 kts | 198° |
| 2026-05-06 12:53 | 41.33384 | 28.55025 | 4968 ft | 277 kts | 180° |
| 2026-05-06 12:53 | 41.31444 | 28.55104 | 4984 ft | 281 kts | 180° |
| 2026-05-06 12:53 | 41.29477 | 28.55167 | 4967 ft | 284 kts | 181° |
| 2026-05-06 12:54 | 41.27510 | 28.55222 | 4966 ft | 282 kts | 181° |
| 2026-05-06 12:54 | 41.25575 | 28.55410 | 4949 ft | 278 kts | 167° |
| 2026-05-06 12:54 | 41.23851 | 28.56591 | 4964 ft | 284 kts | 140° |
| 2026-05-06 12:54 | 41.22424 | 28.58409 | 4993 ft | 284 kts | 134° |
| 2026-05-06 12:55 | 41.21015 | 28.60253 | 5104 ft | 284 kts | 135° |
| 2026-05-06 12:55 | 41.19598 | 28.62088 | 5970 ft | 285 kts | 135° |
| 2026-05-06 12:55 | 41.18174 | 28.63927 | 7051 ft | 287 kts | 134° |
| 2026-05-06 12:55 | 41.16746 | 28.65764 | 7997 ft | 293 kts | 134° |
| 2026-05-06 12:56 | 41.15266 | 28.67659 | 8959 ft | 298 kts | 134° |
| 2026-05-06 12:56 | 41.13765 | 28.69578 | 9964 ft | 302 kts | 134° |
| 2026-05-06 12:56 | 41.12269 | 28.71583 | 10675 ft | 312 kts | 127° |
| 2026-05-06 12:56 | 41.10972 | 28.74060 | 10953 ft | 342 kts | 119° |
| 2026-05-06 12:57 | 41.09682 | 28.76881 | 11200 ft | 373 kts | 119° |
| 2026-05-06 12:57 | 41.08278 | 28.79870 | 11992 ft | 387 kts | 120° |
| 2026-05-06 12:57 | 41.06807 | 28.82909 | 13098 ft | 394 kts | 121° |
| 2026-05-06 12:57 | 41.05318 | 28.85937 | 14198 ft | 400 kts | 121° |
| 2026-05-06 12:58 | 41.03779 | 28.89053 | 15249 ft | 407 kts | 121° |
| 2026-05-06 12:58 | 41.02216 | 28.92204 | 16269 ft | 413 kts | 122° |
| 2026-05-06 12:58 | 41.00404 | 28.95203 | 17204 ft | 423 kts | 131° |
| 2026-05-06 12:58 | 40.98290 | 28.97958 | 18178 ft | 431 kts | 135° |
| 2026-05-06 12:59 | 40.96069 | 29.00655 | 19093 ft | 436 kts | 136° |
| 2026-05-06 12:59 | 40.93826 | 29.03398 | 19983 ft | 442 kts | 135° |
| 2026-05-06 12:59 | 40.91586 | 29.06218 | 20868 ft | 447 kts | 135° |
| 2026-05-06 12:59 | 40.89347 | 29.09107 | 21723 ft | 453 kts | 134° |
| 2026-05-06 13:00 | 40.87082 | 29.12052 | 22564 ft | 459 kts | 134° |
| 2026-05-06 13:00 | 40.84948 | 29.15168 | 23244 ft | 462 kts | 123° |
| 2026-05-06 13:00 | 40.83551 | 29.18946 | 23865 ft | 465 kts | 104° |
| 2026-05-06 13:00 | 40.82823 | 29.23144 | 24542 ft | 465 kts | 100° |
| 2026-05-06 13:01 | 40.82092 | 29.27276 | 25205 ft | 470 kts | 102° |
| 2026-05-06 13:01 | 40.81275 | 29.31470 | 25898 ft | 474 kts | 103° |
| 2026-05-06 13:01 | 40.80426 | 29.35695 | 26569 ft | 478 kts | 103° |
| 2026-05-06 13:01 | 40.79567 | 29.39959 | 27102 ft | 483 kts | 103° |
| 2026-05-06 13:02 | 40.78705 | 29.44254 | 27070 ft | 484 kts | 103° |
| 2026-05-06 13:02 | 40.77848 | 29.48543 | 27082 ft | 483 kts | 103° |
| 2026-05-06 13:02 | 40.76992 | 29.52822 | 27087 ft | 483 kts | 103° |
| 2026-05-06 13:02 | 40.76130 | 29.57117 | 27085 ft | 483 kts | 103° |
| 2026-05-06 13:03 | 40.75270 | 29.61398 | 27087 ft | 483 kts | 103° |
| 2026-05-06 13:03 | 40.74405 | 29.65689 | 27088 ft | 483 kts | 103° |
| 2026-05-06 13:03 | 40.73555 | 29.69969 | 27082 ft | 483 kts | 101° |
| 2026-05-06 13:03 | 40.73098 | 29.74333 | 27089 ft | 479 kts | 90° |
| 2026-05-06 13:04 | 40.73062 | 29.78718 | 27094 ft | 478 kts | 87° |
| 2026-05-06 13:04 | 40.73098 | 29.83094 | 27081 ft | 478 kts | 87° |
| 2026-05-06 13:04 | 40.73107 | 29.87481 | 27081 ft | 479 kts | 88° |
| 2026-05-06 13:04 | 40.73066 | 29.91872 | 27072 ft | 479 kts | 89° |
| 2026-05-06 13:05 | 40.72988 | 29.96262 | 27077 ft | 479 kts | 89° |
| 2026-05-06 13:05 | 40.72896 | 30.00662 | 27081 ft | 479 kts | 89° |
| 2026-05-06 13:05 | 40.72799 | 30.04996 | 27082 ft | 480 kts | 90° |
| 2026-05-06 13:05 | 40.72323 | 30.09352 | 27069 ft | 484 kts | 104° |
| 2026-05-06 13:06 | 40.71202 | 30.13531 | 27089 ft | 484 kts | 110° |
| 2026-05-06 13:06 | 40.69964 | 30.17660 | 27085 ft | 484 kts | 109° |
| 2026-05-06 13:06 | 40.68778 | 30.21808 | 27093 ft | 484 kts | 108° |
| 2026-05-06 13:06 | 40.67653 | 30.26007 | 27083 ft | 484 kts | 107° |
| 2026-05-06 13:07 | 40.66583 | 30.30218 | 27075 ft | 484 kts | 104° |
| 2026-05-06 13:07 | 40.65948 | 30.34528 | 27086 ft | 478 kts | 94° |
| 2026-05-06 13:07 | 40.65639 | 30.38885 | 27099 ft | 478 kts | 92° |
| 2026-05-06 13:07 | 40.65377 | 30.43252 | 27101 ft | 479 kts | 92° |
| 2026-05-06 13:08 | 40.65087 | 30.47625 | 27102 ft | 480 kts | 93° |
| 2026-05-06 13:08 | 40.64753 | 30.52007 | 27093 ft | 481 kts | 94° |
| 2026-05-06 13:08 | 40.64385 | 30.56382 | 27105 ft | 481 kts | 94° |
| 2026-05-06 13:08 | 40.64003 | 30.60757 | 27103 ft | 481 kts | 94° |
| 2026-05-06 13:09 | 40.63619 | 30.65138 | 27097 ft | 481 kts | 94° |
| 2026-05-06 13:09 | 40.63224 | 30.69514 | 27093 ft | 482 kts | 95° |
| 2026-05-06 13:09 | 40.62607 | 30.73859 | 27095 ft | 484 kts | 102° |
| 2026-05-06 13:09 | 40.61717 | 30.78126 | 27114 ft | 484 kts | 103° |
| 2026-05-06 13:10 | 40.60784 | 30.82389 | 27100 ft | 484 kts | 104° |
| 2026-05-06 13:10 | 40.59861 | 30.86592 | 27111 ft | 485 kts | 104° |
| 2026-05-06 13:10 | 40.58937 | 30.90851 | 27102 ft | 485 kts | 103° |
| 2026-05-06 13:10 | 40.58021 | 30.95121 | 27088 ft | 485 kts | 103° |
| 2026-05-06 13:11 | 40.57111 | 30.99396 | 27110 ft | 485 kts | 103° |
| 2026-05-06 13:11 | 40.56203 | 31.03671 | 27111 ft | 485 kts | 103° |
| 2026-05-06 13:11 | 40.55292 | 31.07951 | 27098 ft | 486 kts | 103° |
| 2026-05-06 13:11 | 40.54381 | 31.12218 | 27089 ft | 487 kts | 103° |
| 2026-05-06 13:12 | 40.53464 | 31.16507 | 27093 ft | 486 kts | 103° |
| 2026-05-06 13:12 | 40.52548 | 31.20778 | 27116 ft | 486 kts | 103° |
| 2026-05-06 13:12 | 40.51628 | 31.25053 | 27099 ft | 486 kts | 103° |
| 2026-05-06 13:12 | 40.50703 | 31.29343 | 27102 ft | 487 kts | 103° |
| 2026-05-06 13:13 | 40.49778 | 31.33629 | 26893 ft | 490 kts | 103° |
| 2026-05-06 13:13 | 40.48845 | 31.37943 | 26319 ft | 489 kts | 103° |
| 2026-05-06 13:13 | 40.47923 | 31.42202 | 25804 ft | 482 kts | 103° |
| 2026-05-06 13:13 | 40.47008 | 31.46413 | 25296 ft | 475 kts | 103° |
| 2026-05-06 13:14 | 40.46109 | 31.50545 | 24876 ft | 467 kts | 103° |
| 2026-05-06 13:14 | 40.45221 | 31.54626 | 24479 ft | 463 kts | 103° |
| 2026-05-06 13:14 | 40.44342 | 31.58657 | 24078 ft | 453 kts | 103° |
| 2026-05-06 13:14 | 40.43480 | 31.62608 | 23804 ft | 441 kts | 103° |
| 2026-05-06 13:15 | 40.42660 | 31.66352 | 23587 ft | 429 kts | 103° |
| 2026-05-06 13:15 | 40.41843 | 31.70093 | 23475 ft | 424 kts | 103° |
| 2026-05-06 13:15 | 40.41037 | 31.73775 | 23366 ft | 416 kts | 103° |
| 2026-05-06 13:15 | 40.40238 | 31.77423 | 22819 ft | 415 kts | 103° |
| 2026-05-06 13:16 | 40.39440 | 31.81058 | 22234 ft | 414 kts | 103° |
| 2026-05-06 13:16 | 40.38637 | 31.84717 | 21698 ft | 419 kts | 103° |
| 2026-05-06 13:16 | 40.37825 | 31.88405 | 21277 ft | 422 kts | 103° |
| 2026-05-06 13:16 | 40.37008 | 31.92108 | 20906 ft | 423 kts | 104° |
| 2026-05-06 13:17 | 40.36185 | 31.95819 | 20559 ft | 424 kts | 104° |
| 2026-05-06 13:17 | 40.35348 | 31.99487 | 20295 ft | 422 kts | 104° |
| 2026-05-06 13:17 | 40.34497 | 32.03160 | 20101 ft | 419 kts | 105° |
| 2026-05-06 13:17 | 40.33656 | 32.06801 | 19872 ft | 414 kts | 104° |
| 2026-05-06 13:18 | 40.33171 | 32.10491 | 19431 ft | 412 kts | 87° |
| 2026-05-06 13:18 | 40.33552 | 32.14158 | 19048 ft | 402 kts | 77° |
| 2026-05-06 13:18 | 40.34060 | 32.17752 | 18548 ft | 401 kts | 78° |
| 2026-05-06 13:18 | 40.34506 | 32.21297 | 18232 ft | 380 kts | 79° |
| 2026-05-06 13:19 | 40.34890 | 32.24578 | 17915 ft | 355 kts | 79° |
| 2026-05-06 13:19 | 40.35252 | 32.27724 | 17480 ft | 342 kts | 79° |
| 2026-05-06 13:19 | 40.35600 | 32.30753 | 17142 ft | 326 kts | 79° |
| 2026-05-06 13:19 | 40.35908 | 32.33620 | 16648 ft | 313 kts | 84° |
| 2026-05-06 13:20 | 40.35714 | 32.36440 | 16117 ft | 309 kts | 103° |
| 2026-05-06 13:20 | 40.35170 | 32.39065 | 15845 ft | 288 kts | 104° |
| 2026-05-06 13:20 | 40.34663 | 32.41485 | 15564 ft | 270 kts | 103° |
| 2026-05-06 13:20 | 40.34186 | 32.43813 | 15337 ft | 260 kts | 103° |
| 2026-05-06 13:21 | 40.33732 | 32.46072 | 15129 ft | 253 kts | 103° |
| 2026-05-06 13:21 | 40.33290 | 32.48292 | 14841 ft | 251 kts | 103° |
| 2026-05-06 13:21 | 40.32856 | 32.50492 | 14567 ft | 247 kts | 103° |
| 2026-05-06 13:21 | 40.32425 | 32.52679 | 14216 ft | 248 kts | 103° |
| 2026-05-06 13:22 | 40.31996 | 32.54870 | 13898 ft | 247 kts | 103° |
| 2026-05-06 13:22 | 40.31569 | 32.57044 | 13582 ft | 245 kts | 104° |
| 2026-05-06 13:22 | 40.31145 | 32.59200 | 13255 ft | 243 kts | 104° |
| 2026-05-06 13:22 | 40.30724 | 32.61341 | 12912 ft | 242 kts | 104° |
| 2026-05-06 13:23 | 40.30161 | 32.63406 | 12503 ft | 241 kts | 121° |
| 2026-05-06 13:23 | 40.29139 | 32.65108 | 12159 ft | 241 kts | 134° |
| 2026-05-06 13:23 | 40.27959 | 32.66633 | 11814 ft | 235 kts | 127° |
| 2026-05-06 13:23 | 40.27315 | 32.68588 | 11342 ft | 235 kts | 109° |
| 2026-05-06 13:24 | 40.26414 | 32.70329 | 10837 ft | 236 kts | 146° |
| 2026-05-06 13:24 | 40.24896 | 32.71068 | 10517 ft | 233 kts | 169° |
| 2026-05-06 13:24 | 40.23303 | 32.71347 | 10225 ft | 230 kts | 178° |
| 2026-05-06 13:24 | 40.21721 | 32.71200 | 9914 ft | 227 kts | 188° |
| 2026-05-06 13:25 | 40.20159 | 32.70891 | 9527 ft | 228 kts | 189° |
| 2026-05-06 13:25 | 40.18641 | 32.70552 | 9363 ft | 216 kts | 191° |
| 2026-05-06 13:25 | 40.17165 | 32.70183 | 8961 ft | 215 kts | 192° |
| 2026-05-06 13:25 | 40.15722 | 32.69794 | 8677 ft | 208 kts | 192° |
| 2026-05-06 13:26 | 40.14334 | 32.69390 | 8441 ft | 199 kts | 193° |
| 2026-05-06 13:26 | 40.13006 | 32.69160 | 8193 ft | 191 kts | 184° |
| 2026-05-06 13:26 | 40.11702 | 32.69182 | 7932 ft | 186 kts | 178° |
| 2026-05-06 13:26 | 40.10422 | 32.69375 | 7662 ft | 183 kts | 169° |
| 2026-05-06 13:27 | 40.09213 | 32.69929 | 7683 ft | 185 kts | 158° |
| 2026-05-06 13:27 | 40.08087 | 32.70777 | 7871 ft | 193 kts | 143° |
| 2026-05-06 13:27 | 40.07102 | 32.72022 | 7738 ft | 198 kts | 134° |
| 2026-05-06 13:27 | 40.06284 | 32.73479 | 7510 ft | 196 kts | 122° |
| 2026-05-06 13:28 | 40.05666 | 32.75025 | 7335 ft | 188 kts | 116° |
| 2026-05-06 13:28 | 40.05185 | 32.76613 | 7451 ft | 192 kts | 112° |
| 2026-05-06 13:28 | 40.04726 | 32.78200 | 7432 ft | 184 kts | 112° |
| 2026-05-06 13:28 | 40.04282 | 32.79734 | 7221 ft | 180 kts | 112° |
| 2026-05-06 13:29 | 40.03846 | 32.81247 | 7044 ft | 176 kts | 112° |
| 2026-05-06 13:29 | 40.03417 | 32.82745 | 6785 ft | 179 kts | 112° |
| 2026-05-06 13:29 | 40.02971 | 32.84277 | 6578 ft | 174 kts | 108° |
| 2026-05-06 13:29 | 40.03039 | 32.85827 | 6788 ft | 187 kts | 75° |
| 2026-05-06 13:30 | 40.03334 | 32.87485 | 6658 ft | 192 kts | 78° |
| 2026-05-06 13:30 | 40.03713 | 32.89105 | 6303 ft | 182 kts | 67° |
| 2026-05-06 13:30 | 40.04241 | 32.90611 | 5790 ft | 181 kts | 59° |
| 2026-05-06 13:30 | 40.04932 | 32.91939 | 5302 ft | 176 kts | 51° |
| 2026-05-06 13:31 | 40.05822 | 32.93016 | 4702 ft | 174 kts | 34° |
| 2026-05-06 13:31 | 40.06794 | 32.93906 | 4249 ft | 165 kts | 34° |
| 2026-05-06 13:31 | 40.07395 | 32.94473 | 4082 ft | 162 kts | 33° |
| 2026-05-06 13:31 | 40.08328 | 32.95381 | 3919 ft | 169 kts | 34° |
| 2026-05-06 13:32 | 40.09281 | 32.96307 | 3741 ft | 171 kts | 34° |
| 2026-05-06 13:32 | 40.10255 | 32.97216 | 3476 ft | 173 kts | 35° |
| 2026-05-06 13:32 | 40.11543 | 32.98452 | 3172 ft | 174 kts | 34° |
| 2026-05-06 13:32 | 40.12191 | 32.99072 | 3131 ft | 165 kts | 33° |
| 2026-05-06 13:33 | 40.13037 | 32.99861 | 3126 ft | 128 kts | 37° |
| 2026-05-06 13:33 | 40.13489 | 33.00294 | 3135 ft | 50 kts | 36° |
| 2026-05-06 13:33 | 40.13733 | 33.00528 | 3138 ft | 42 kts | 36° |
| 2026-05-06 13:33 | 40.13959 | 33.00745 | 3138 ft | 36 kts | 36° |
| 2026-05-06 13:34 | 40.14100 | 33.00896 | 3141 ft | 23 kts | 61° |
| 2026-05-06 13:34 | 40.14036 | 33.01065 | 3140 ft | 23 kts | 162° |
| 2026-05-06 13:34 | 40.13890 | 33.00989 | 3138 ft | 23 kts | 216° |
| 2026-05-06 13:34 | 40.13758 | 33.00864 | 3137 ft | 23 kts | 216° |
| 2026-05-06 13:35 | 40.13625 | 33.00736 | 3133 ft | 25 kts | 216° |
| 2026-05-06 13:35 | 40.13477 | 33.00595 | 3131 ft | 28 kts | 216° |
| 2026-05-06 13:35 | 40.13322 | 33.00446 | 3131 ft | 28 kts | 216° |
| 2026-05-06 13:35 | 40.13183 | 33.00340 | 3130 ft | 16 kts | 185° |
| 2026-05-06 13:36 | 40.13070 | 33.00327 | 3130 ft | 16 kts | 185° |
| 2026-05-06 13:36 | 40.12961 | 33.00293 | 3128 ft | 15 kts | 176° |
| 2026-05-06 13:36 | 40.12937 | 33.00333 | 3126 ft | 0 kts | 127° |